Time;durP1;ratioP1;P1;durP2;ratioP2;P2;SDS_P1;SDS_P2;PMS_P1;PMS_P2;Temp;Humidity;BMP_temperature;BMP_pressure;BME280_temperature;BME280_humidity;BME280_pressure;Samples;Min_cycle;Max_cycle;Signal;HPM_P1;HPM_P2
2022/09/02 00:01:13;;;;;;;4.87;3.10;;;15.50;99.90;;;;;;5019222;28;20516;-71
2022/09/02 00:03:40;;;;;;;4.97;2.90;;;15.50;99.90;;;;;;5015274;28;20499;-71
2022/09/02 00:06:07;;;;;;;2.80;2.60;;;15.50;99.90;;;;;;5021561;28;20482;-72
2022/09/02 00:08:34;;;;;;;3.37;3.10;;;15.50;99.90;;;;;;5028318;28;20508;-71
2022/09/02 00:11:02;;;;;;;8.63;2.53;;;15.60;99.90;;;;;;5022144;28;20454;-71
2022/09/02 00:13:29;;;;;;;2.40;2.20;;;15.60;99.90;;;;;;5021685;28;20498;-72
2022/09/02 00:15:56;;;;;;;3.10;2.30;;;15.60;99.90;;;;;;5017555;28;20450;-72
2022/09/02 00:18:25;;;;;;;2.87;2.57;;;15.60;99.90;;;;;;5027384;28;20451;-71
2022/09/02 00:20:52;;;;;;;2.60;2.40;;;15.60;99.90;;;;;;5025365;28;20517;-72
2022/09/02 00:23:19;;;;;;;7.80;2.27;;;15.70;99.90;;;;;;5022621;28;20521;-72
2022/09/02 00:25:46;;;;;;;3.47;2.50;;;15.60;99.90;;;;;;5021398;28;20443;-72
2022/09/02 00:28:15;;;;;;;4.53;2.10;;;15.60;99.90;;;;;;5022861;28;20969;-72
2022/09/02 00:30:43;;;;;;;3.43;2.00;;;15.60;99.90;;;;;;5025082;28;20457;-71
2022/09/02 00:33:10;;;;;;;4.90;2.10;;;15.60;99.90;;;;;;5029022;28;20466;-71
2022/09/02 00:35:38;;;;;;;7.17;2.80;;;15.60;99.90;;;;;;5021811;28;20494;-72
2022/09/02 00:38:06;;;;;;;3.53;2.30;;;15.60;99.90;;;;;;5019195;28;20513;-72
2022/09/02 00:40:33;;;;;;;4.97;2.27;;;15.60;99.90;;;;;;5020858;28;20469;-72
2022/09/02 00:43:00;;;;;;;3.63;2.40;;;15.60;99.90;;;;;;5020081;28;20968;-73
2022/09/02 00:45:27;;;;;;;3.03;2.33;;;15.60;99.90;;;;;;5023080;28;20446;-72
2022/09/02 00:47:54;;;;;;;2.60;2.40;;;15.60;99.90;;;;;;5032237;28;20560;-73
2022/09/02 00:50:26;;;;;;;2.67;2.47;;;15.60;99.90;;;;;;5021158;28;20962;-71
2022/09/02 00:52:58;;;;;;;3.20;2.43;;;15.60;99.90;;;;;;5021735;28;20564;-71
2022/09/02 00:55:29;;;;;;;3.40;2.40;;;15.60;99.90;;;;;;5023030;28;20547;-71
2022/09/02 00:58:00;;;;;;;3.23;2.20;;;15.60;99.90;;;;;;5018189;28;20861;-71
2022/09/02 01:00:29;;;;;;;2.53;2.33;;;15.60;99.90;;;;;;5024736;28;20519;-71
2022/09/02 01:02:59;;;;;;;3.80;2.10;;;15.60;99.90;;;;;;5020934;28;20516;-71
2022/09/02 01:05:28;;;;;;;6.10;2.57;;;15.60;99.90;;;;;;5018509;28;20494;-71
2022/09/02 01:07:57;;;;;;;3.43;2.40;;;15.60;99.90;;;;;;5020844;28;20509;-71
2022/09/02 01:10:27;;;;;;;2.80;2.30;;;15.60;99.90;;;;;;5026729;28;20460;-71
2022/09/02 01:12:56;;;;;;;3.47;2.93;;;15.60;99.90;;;;;;5015656;28;20471;-71
2022/09/02 01:15:24;;;;;;;7.37;2.47;;;15.60;99.90;;;;;;5017118;28;20544;-71
2022/09/02 01:17:52;;;;;;;4.00;2.67;;;15.60;99.90;;;;;;5031872;28;20428;-71
2022/09/02 01:20:21;;;;;;;3.53;2.27;;;15.60;99.90;;;;;;5021155;28;20455;-71
2022/09/02 01:22:50;;;;;;;2.60;2.40;;;15.60;99.90;;;;;;5015888;28;20519;-73
2022/09/02 01:25:20;;;;;;;3.67;2.50;;;15.60;99.90;;;;;;5016432;28;20425;-71
2022/09/02 01:27:47;;;;;;;4.20;2.40;;;15.60;99.90;;;;;;5027949;28;20922;-71
2022/09/02 01:30:17;;;;;;;4.90;2.77;;;15.60;99.90;;;;;;5021518;28;20458;-71
2022/09/02 01:32:44;;;;;;;3.77;2.60;;;15.60;99.90;;;;;;5021950;28;20483;-71
2022/09/02 01:35:11;;;;;;;8.43;3.20;;;15.60;99.90;;;;;;5022867;28;20907;-71
2022/09/02 01:37:38;;;;;;;3.80;2.30;;;15.60;99.90;;;;;;5025222;28;20962;-71
2022/09/02 01:40:08;;;;;;;4.57;2.60;;;15.60;99.90;;;;;;5020535;28;20946;-72
2022/09/02 01:42:35;;;;;;;7.63;2.43;;;15.60;99.90;;;;;;5025662;28;20529;-72
2022/09/02 01:45:02;;;;;;;4.33;2.77;;;15.60;99.90;;;;;;5021417;28;20893;-71
2022/09/02 01:47:28;;;;;;;5.33;2.30;;;15.60;99.90;;;;;;5018820;28;20451;-72
2022/09/02 01:49:55;;;;;;;5.53;2.37;;;15.60;99.90;;;;;;5024135;28;20541;-71
2022/09/02 01:52:24;;;;;;;2.60;2.33;;;15.60;99.90;;;;;;5022649;28;21096;-71
2022/09/02 01:54:51;;;;;;;5.40;2.57;;;15.60;99.90;;;;;;5021566;28;20491;-72
2022/09/02 01:57:22;;;;;;;2.70;2.50;;;15.60;99.90;;;;;;5018529;28;20508;-71
2022/09/02 01:59:49;;;;;;;2.77;2.50;;;15.60;99.90;;;;;;5025194;28;20848;-71
2022/09/02 02:02:18;;;;;;;4.50;2.40;;;15.60;99.90;;;;;;5024661;28;20570;-71
2022/09/02 02:04:45;;;;;;;5.77;2.27;;;15.60;99.90;;;;;;5022309;28;20457;-71
2022/09/02 02:07:14;;;;;;;4.60;2.63;;;15.60;99.90;;;;;;5021896;28;20459;-71
2022/09/02 02:09:40;;;;;;;5.83;2.70;;;15.60;99.90;;;;;;5021588;28;20812;-72
2022/09/02 02:12:08;;;;;;;5.53;2.33;;;15.60;99.90;;;;;;5025094;28;20470;-71
2022/09/02 02:14:36;;;;;;;3.90;2.63;;;15.70;99.90;;;;;;5026263;28;20513;-71
2022/09/02 02:17:04;;;;;;;4.00;2.30;;;15.60;99.90;;;;;;5025301;28;20509;-71
2022/09/02 02:19:30;;;;;;;3.60;2.50;;;15.60;99.90;;;;;;5021035;28;20451;-71
2022/09/02 02:21:57;;;;;;;3.20;2.17;;;15.70;99.90;;;;;;5019624;28;20505;-71
2022/09/02 02:24:24;;;;;;;8.30;2.53;;;15.70;99.90;;;;;;5023402;28;20455;-71
2022/09/02 02:26:50;;;;;;;9.23;2.70;;;15.70;99.90;;;;;;5020229;28;20458;-71
2022/09/02 02:29:18;;;;;;;4.87;2.60;;;15.70;99.90;;;;;;5024804;28;20454;-71
2022/09/02 02:31:46;;;;;;;3.10;2.70;;;15.70;99.90;;;;;;5019152;28;20498;-72
2022/09/02 02:34:13;;;;;;;2.87;2.60;;;15.80;99.90;;;;;;5018628;28;20443;-72
2022/09/02 02:36:40;;;;;;;6.23;2.83;;;15.80;99.90;;;;;;5019651;28;20448;-71
2022/09/02 02:39:08;;;;;;;2.17;2.07;;;15.80;99.90;;;;;;5021585;28;20454;-71
2022/09/02 02:41:36;;;;;;;2.60;2.40;;;15.90;99.90;;;;;;5020674;28;20457;-71
2022/09/02 02:44:03;;;;;;;6.40;2.73;;;15.90;99.90;;;;;;5021904;28;20482;-72
2022/09/02 02:46:32;;;;;;;6.40;2.70;;;15.90;99.90;;;;;;5016616;28;20512;-71
2022/09/02 02:49:00;;;;;;;2.73;2.40;;;15.90;99.90;;;;;;5017116;28;20873;-71
2022/09/02 02:51:27;;;;;;;3.57;2.20;;;15.80;99.90;;;;;;5018436;28;20430;-72
2022/09/02 02:53:53;;;;;;;2.30;2.10;;;15.80;99.90;;;;;;5018814;28;22311;-72
2022/09/02 02:56:21;;;;;;;3.97;2.50;;;15.80;99.90;;;;;;5019232;28;20535;-71
2022/09/02 02:58:48;;;;;;;3.83;2.47;;;15.80;99.90;;;;;;5020231;28;20586;-72
2022/09/02 03:01:14;;;;;;;2.30;1.97;;;15.80;99.90;;;;;;5017971;28;20954;-71
2022/09/02 03:03:42;;;;;;;2.70;2.17;;;15.70;99.90;;;;;;5022077;28;20478;-71
2022/09/02 03:06:10;;;;;;;4.40;2.43;;;15.70;99.90;;;;;;5020974;28;20442;-72
2022/09/02 03:08:37;;;;;;;2.57;2.37;;;15.70;99.90;;;;;;5018161;28;20849;-72
2022/09/02 03:11:04;;;;;;;3.03;2.13;;;15.70;99.90;;;;;;5020132;28;20542;-71
2022/09/02 03:13:32;;;;;;;3.20;2.90;;;15.80;99.90;;;;;;5015381;28;20885;-72
2022/09/02 03:15:59;;;;;;;2.77;2.30;;;15.80;99.90;;;;;;5022346;28;20484;-72
2022/09/02 03:18:25;;;;;;;2.63;2.40;;;15.70;99.90;;;;;;5024080;28;20432;-71
2022/09/02 03:20:52;;;;;;;5.60;2.50;;;15.70;99.90;;;;;;5018610;28;20430;-71
2022/09/02 03:23:20;;;;;;;5.67;2.43;;;15.70;99.90;;;;;;5017969;28;20448;-71
2022/09/02 03:25:47;;;;;;;4.30;2.33;;;15.60;99.90;;;;;;5018833;28;20865;-71
2022/09/02 03:28:14;;;;;;;4.00;3.10;;;15.50;99.90;;;;;;5024262;28;20446;-71
2022/09/02 03:30:41;;;;;;;2.60;2.40;;;15.50;99.90;;;;;;5023593;28;20429;-72
2022/09/02 03:33:08;;;;;;;3.77;2.93;;;15.50;99.90;;;;;;5023998;28;20861;-72
2022/09/02 03:35:39;;;;;;;4.70;2.40;;;15.50;99.90;;;;;;5021074;28;20524;-71
2022/09/02 03:38:06;;;;;;;4.60;2.40;;;15.50;99.90;;;;;;5022372;28;20481;-71
2022/09/02 03:40:35;;;;;;;4.63;2.20;;;15.40;99.90;;;;;;5018221;28;20451;-71
2022/09/02 03:43:01;;;;;;;4.33;2.30;;;15.40;99.90;;;;;;5020180;28;20995;-71
2022/09/02 03:45:29;;;;;;;2.87;2.60;;;15.50;99.90;;;;;;5021923;28;20454;-71
2022/09/02 03:47:58;;;;;;;5.20;2.80;;;15.50;99.90;;;;;;5019109;28;20436;-71
2022/09/02 03:50:28;;;;;;;8.77;2.57;;;15.50;99.90;;;;;;5019983;28;20459;-71
2022/09/02 03:52:56;;;;;;;2.47;2.27;;;15.50;99.90;;;;;;5020085;28;21060;-71
2022/09/02 03:55:23;;;;;;;2.60;2.40;;;15.50;99.90;;;;;;5025672;28;20486;-71
2022/09/02 03:57:51;;;;;;;3.40;2.37;;;15.50;99.90;;;;;;5019794;28;20462;-71
2022/09/02 04:00:22;;;;;;;3.90;2.73;;;15.50;99.90;;;;;;5028888;28;20508;-71
2022/09/02 04:02:49;;;;;;;2.37;2.27;;;15.50;99.90;;;;;;5025429;28;20485;-73
2022/09/02 04:05:16;;;;;;;3.60;2.30;;;15.40;99.90;;;;;;5024269;28;20497;-72
2022/09/02 04:07:43;;;;;;;2.43;2.33;;;15.40;99.90;;;;;;5021462;28;20451;-72
2022/09/02 04:10:10;;;;;;;4.03;2.10;;;15.40;99.90;;;;;;5027751;28;20472;-72
2022/09/02 04:12:38;;;;;;;2.77;2.27;;;15.30;99.90;;;;;;5018366;28;20816;-72
2022/09/02 04:15:10;;;;;;;3.93;2.50;;;15.20;99.90;;;;;;5027840;28;20900;-72
2022/09/02 04:17:37;;;;;;;2.60;2.40;;;15.20;99.90;;;;;;5024150;28;20455;-72
2022/09/02 04:20:06;;;;;;;3.27;2.77;;;15.10;99.90;;;;;;5024487;28;20459;-72
2022/09/02 04:22:33;;;;;;;4.80;2.53;;;15.10;99.90;;;;;;5021247;28;20480;-72
2022/09/02 04:25:00;;;;;;;3.83;2.67;;;15.00;99.90;;;;;;5025311;28;20445;-72
2022/09/02 04:27:27;;;;;;;5.10;3.13;;;15.00;99.90;;;;;;5018948;28;20877;-72
2022/09/02 04:29:55;;;;;;;5.00;2.43;;;14.90;99.90;;;;;;5024889;28;20454;-72
2022/09/02 04:32:25;;;;;;;3.03;2.50;;;14.90;99.90;;;;;;5018111;28;20529;-72
2022/09/02 04:34:51;;;;;;;3.20;2.30;;;14.90;99.90;;;;;;5024969;28;20987;-72
2022/09/02 04:37:18;;;;;;;6.00;3.03;;;14.90;99.90;;;;;;5019781;28;20806;-72
2022/09/02 04:39:45;;;;;;;5.93;3.40;;;14.80;99.90;;;;;;5021536;28;20801;-72
2022/09/02 04:42:11;;;;;;;7.87;2.90;;;14.80;99.90;;;;;;5017060;28;20474;-72
2022/09/02 04:44:38;;;;;;;3.60;2.73;;;14.80;99.90;;;;;;5015565;28;20447;-72
2022/09/02 04:47:05;;;;;;;5.57;3.03;;;14.80;99.90;;;;;;5019298;28;20501;-72
2022/09/02 04:49:33;;;;;;;3.60;2.47;;;14.70;99.90;;;;;;5019624;28;20453;-72
2022/09/02 04:52:00;;;;;;;3.30;2.50;;;14.70;99.90;;;;;;5020257;28;20493;-72
2022/09/02 04:54:27;;;;;;;4.43;2.70;;;14.70;99.90;;;;;;5027758;28;20512;-72
2022/09/02 04:56:54;;;;;;;3.80;2.90;;;14.70;99.90;;;;;;5017360;28;20486;-72
2022/09/02 04:59:20;;;;;;;4.30;2.90;;;14.70;99.90;;;;;;5021749;28;20509;-72
2022/09/02 05:01:48;;;;;;;5.10;2.83;;;14.70;99.90;;;;;;5019540;28;20454;-72
2022/09/02 05:04:15;;;;;;;4.90;2.73;;;14.70;99.90;;;;;;5016541;28;20458;-73
2022/09/02 05:06:44;;;;;;;5.23;2.77;;;14.80;99.90;;;;;;5017087;28;20459;-73
2022/09/02 05:09:11;;;;;;;2.73;2.53;;;15.10;99.90;;;;;;5019761;28;20451;-73
2022/09/02 05:11:37;;;;;;;13.57;3.20;;;15.40;99.90;;;;;;5018847;28;20456;-73
2022/09/02 05:14:06;;;;;;;5.40;3.47;;;15.70;99.90;;;;;;5018079;28;20474;-73
2022/09/02 05:16:35;;;;;;;7.57;2.43;;;15.90;99.90;;;;;;5020826;28;20590;-73
2022/09/02 05:19:02;;;;;;;3.20;2.40;;;16.20;99.90;;;;;;5017034;28;20777;-73
2022/09/02 05:21:29;;;;;;;5.20;2.80;;;16.50;99.90;;;;;;5019831;28;21022;-73
2022/09/02 05:23:58;;;;;;;5.63;2.57;;;16.70;99.90;;;;;;5019985;28;20835;-73
2022/09/02 05:26:25;;;;;;;5.00;2.93;;;16.80;99.90;;;;;;5023772;28;20505;-73
2022/09/02 05:28:52;;;;;;;6.20;2.70;;;17.10;99.90;;;;;;5019795;28;20879;-73
2022/09/02 05:31:20;;;;;;;5.90;2.73;;;17.20;99.90;;;;;;5019666;28;20454;-73
2022/09/02 05:33:47;;;;;;;5.80;2.50;;;17.20;99.90;;;;;;5021929;28;20447;-73
2022/09/02 05:36:16;;;;;;;6.20;2.80;;;17.30;99.90;;;;;;5020127;28;20475;-73
2022/09/02 05:38:44;;;;;;;3.40;3.10;;;17.40;99.90;;;;;;5019281;28;20818;-73
2022/09/02 05:41:16;;;;;;;5.00;2.63;;;17.50;99.90;;;;;;5023235;28;21150;-73
2022/09/02 05:43:44;;;;;;;3.60;2.60;;;17.60;99.90;;;;;;5023790;28;20472;-73
2022/09/02 05:46:16;;;;;;;3.50;2.50;;;17.70;99.90;;;;;;5019223;28;20463;-73
2022/09/02 05:51:28;;;;;;;3.87;3.10;;;17.70;99.90;;;;;;5017917;28;20434;-73
2022/09/02 05:53:56;;;;;;;8.00;2.90;;;17.80;99.90;;;;;;5021857;28;20459;-72
2022/09/02 05:56:26;;;;;;;6.47;3.30;;;17.80;99.90;;;;;;5025068;28;20456;-72
2022/09/02 05:58:54;;;;;;;17.20;2.90;;;17.90;99.90;;;;;;5018778;28;20434;-72
2022/09/02 06:01:22;;;;;;;4.40;2.80;;;18.00;99.90;;;;;;5019661;28;20872;-73
2022/09/02 06:03:49;;;;;;;12.20;3.20;;;18.10;99.90;;;;;;5021621;28;20976;-73
2022/09/02 06:06:17;;;;;;;4.10;2.73;;;18.00;99.90;;;;;;5018143;28;20437;-73
2022/09/02 06:08:44;;;;;;;9.93;2.80;;;18.30;99.90;;;;;;5022557;28;20429;-73
2022/09/02 06:11:12;;;;;;;12.50;3.00;;;18.30;99.90;;;;;;5019676;28;20451;-73
2022/09/02 06:13:41;;;;;;;5.03;2.73;;;18.40;99.90;;;;;;5023388;28;20448;-73
2022/09/02 06:16:11;;;;;;;5.13;2.70;;;18.40;99.90;;;;;;5019775;28;20532;-73
2022/09/02 06:18:37;;;;;;;5.80;2.80;;;18.30;99.90;;;;;;5018280;28;20490;-73
2022/09/02 06:21:05;;;;;;;9.03;3.30;;;18.30;99.90;;;;;;5020459;28;20479;-73
2022/09/02 06:23:34;;;;;;;5.27;3.13;;;18.20;99.90;;;;;;5017097;28;21022;-73
2022/09/02 06:26:01;;;;;;;11.57;4.93;;;18.20;99.90;;;;;;5019786;28;20450;-73
2022/09/02 06:28:27;;;;;;;7.77;3.37;;;18.20;99.90;;;;;;5025684;28;20483;-73
2022/09/02 06:30:55;;;;;;;12.90;3.50;;;18.20;99.90;;;;;;5020394;28;20480;-73
2022/09/02 06:33:22;;;;;;;12.40;3.30;;;18.20;99.90;;;;;;5019111;28;20448;-73
2022/09/02 06:35:49;;;;;;;10.93;2.60;;;18.20;99.90;;;;;;5018398;28;21060;-73
2022/09/02 06:38:16;;;;;;;10.10;3.07;;;18.20;99.90;;;;;;5018724;28;20434;-74
2022/09/02 06:40:50;;;;;;;8.03;3.20;;;18.20;99.90;;;;;;5019487;28;20488;-73
2022/09/02 06:43:17;;;;;;;11.07;3.20;;;18.30;99.90;;;;;;5022189;28;20452;-73
2022/09/02 06:45:44;;;;;;;5.37;3.00;;;18.30;99.90;;;;;;5022314;28;20830;-73
2022/09/02 06:48:12;;;;;;;10.73;3.07;;;18.30;99.90;;;;;;5020767;28;20448;-74
2022/09/02 06:50:41;;;;;;;5.33;2.40;;;18.30;99.90;;;;;;5025125;28;21030;-73
2022/09/02 06:53:10;;;;;;;6.00;2.70;;;18.30;99.90;;;;;;5025826;28;20441;-73
2022/09/02 06:55:38;;;;;;;3.13;2.80;;;18.30;99.90;;;;;;5026241;28;20433;-72
2022/09/02 06:58:05;;;;;;;5.50;3.07;;;18.30;99.90;;;;;;5025990;28;20490;-73
2022/09/02 07:00:34;;;;;;;3.77;2.20;;;18.40;99.90;;;;;;5025165;28;20846;-72
2022/09/02 07:05:46;;;;;;;8.60;2.30;;;18.60;99.90;;;;;;5024869;28;20542;-72
2022/09/02 07:08:13;;;;;;;7.00;2.77;;;18.50;99.90;;;;;;5025793;28;20211;-71
2022/09/02 07:10:41;;;;;;;3.40;2.13;;;18.50;99.90;;;;;;5025694;28;20504;-72
2022/09/02 07:13:08;;;;;;;4.77;2.60;;;18.60;99.90;;;;;;5024881;28;20444;-70
2022/09/02 07:15:35;;;;;;;4.13;2.40;;;18.70;99.90;;;;;;5023856;28;20454;-70
2022/09/02 07:18:02;;;;;;;3.53;2.40;;;18.80;99.90;;;;;;5025176;28;20428;-70
2022/09/02 07:20:29;;;;;;;3.40;2.27;;;19.00;99.90;;;;;;5024410;28;20433;-70
2022/09/02 07:22:57;;;;;;;5.40;3.00;;;19.00;99.90;;;;;;5024800;28;20445;-70
2022/09/02 07:25:25;;;;;;;28.20;9.60;;;19.10;99.90;;;;;;5024195;28;20425;-71
2022/09/02 07:27:51;;;;;;;9.50;3.17;;;19.20;99.90;;;;;;5025563;28;20810;-71
2022/09/02 07:30:19;;;;;;;3.70;2.20;;;19.30;99.90;;;;;;5028637;28;20944;-71
2022/09/02 07:32:45;;;;;;;4.87;2.40;;;19.40;99.90;;;;;;5028747;28;20482;-71
2022/09/02 07:35:12;;;;;;;3.33;2.70;;;19.60;99.90;;;;;;5028470;28;20454;-70
2022/09/02 07:37:39;;;;;;;7.23;2.27;;;19.90;99.90;;;;;;5028176;28;20461;-72
2022/09/02 07:40:10;;;;;;;7.97;2.30;;;20.10;99.90;;;;;;5028652;28;20456;-72
2022/09/02 07:42:37;;;;;;;8.10;2.10;;;20.40;99.90;;;;;;5028775;28;21030;-71
2022/09/02 07:45:05;;;;;;;5.33;3.90;;;20.90;99.90;;;;;;5027593;28;20465;-70
2022/09/02 07:47:32;;;;;;;4.33;2.47;;;21.30;99.90;;;;;;5028460;28;20421;-71
2022/09/02 07:49:59;;;;;;;4.03;2.37;;;21.50;99.90;;;;;;5028063;28;20491;-70
2022/09/02 07:52:25;;;;;;;5.23;2.40;;;21.80;99.90;;;;;;5025551;28;20482;-71
2022/09/02 07:54:52;;;;;;;6.37;2.33;;;21.90;99.90;;;;;;5028433;28;20446;-71
2022/09/02 07:57:20;;;;;;;6.90;2.40;;;22.20;99.90;;;;;;5027381;28;20465;-75
2022/09/02 07:59:47;;;;;;;3.80;2.03;;;22.30;99.90;;;;;;5028720;28;20285;-72
2022/09/02 08:02:14;;;;;;;3.13;1.90;;;22.30;99.90;;;;;;5027030;28;20449;-72
2022/09/02 08:04:42;;;;;;;3.93;2.13;;;22.50;99.90;;;;;;5027131;28;20450;-72
2022/09/02 08:07:09;;;;;;;2.50;1.80;;;22.50;99.90;;;;;;5027757;28;21055;-71
2022/09/02 08:09:36;;;;;;;3.23;2.27;;;22.60;99.90;;;;;;5028354;28;20458;-71
2022/09/02 08:12:03;;;;;;;6.10;2.00;;;22.50;99.90;;;;;;5027511;28;20474;-71
2022/09/02 08:14:32;;;;;;;4.47;2.53;;;22.60;99.90;;;;;;5029294;28;20455;-71
2022/09/02 08:16:58;;;;;;;5.17;2.20;;;22.70;99.90;;;;;;5021361;28;20482;-71
2022/09/02 08:19:26;;;;;;;4.37;2.20;;;22.90;99.90;;;;;;5007664;28;20482;-71
2022/09/02 08:21:52;;;;;;;2.33;2.03;;;23.00;99.90;;;;;;5009173;28;20463;-72
2022/09/02 08:24:19;;;;;;;2.50;2.17;;;23.00;99.90;;;;;;5007952;28;20463;-72
2022/09/02 08:26:46;;;;;;;2.43;2.23;;;23.20;99.90;;;;;;5006711;28;20448;-71
2022/09/02 08:29:12;;;;;;;2.53;2.03;;;23.00;99.90;;;;;;5008128;28;20452;-71
2022/09/02 08:31:40;;;;;;;6.93;2.10;;;22.70;99.90;;;;;;5007768;28;20455;-72
2022/09/02 08:34:08;;;;;;;6.27;2.50;;;22.60;99.90;;;;;;5007951;28;20451;-72
2022/09/02 08:36:35;;;;;;;4.70;2.40;;;22.90;99.90;;;;;;5007916;28;20606;-71
2022/09/02 08:39:02;;;;;;;5.33;2.20;;;23.20;99.90;;;;;;5006830;28;20966;-71
2022/09/02 08:41:36;;;;;;;8.90;2.57;;;23.60;99.90;;;;;;5006557;28;20474;-71
2022/09/02 08:44:04;;;;;;;2.87;2.37;;;23.80;99.90;;;;;;5007619;28;20538;-71
2022/09/02 08:46:34;;;;;;;2.80;2.23;;;24.00;99.90;;;;;;5007035;28;20803;-71
2022/09/02 08:49:08;;;;;;;3.37;1.80;;;24.20;99.20;;;;;;5008022;28;21728;-71
2022/09/02 08:51:41;;;;;;;3.43;2.27;;;24.00;99.10;;;;;;5006958;28;20459;-71
2022/09/02 08:54:11;;;;;;;2.33;2.13;;;24.10;98.80;;;;;;5007501;28;20466;-71
2022/09/02 08:56:38;;;;;;;2.00;1.90;;;23.80;99.30;;;;;;5008224;28;20487;-71
2022/09/02 08:59:08;;;;;;;3.63;2.23;;;23.90;98.90;;;;;;5007038;28;20459;-71
2022/09/02 09:01:45;;;;;;;4.07;2.00;;;24.10;98.90;;;;;;5007671;28;20459;-71
2022/09/02 09:04:32;;;;;;;6.43;2.40;;;24.40;98.50;;;;;;5007002;28;20963;-71
2022/09/02 09:07:16;;;;;;;3.03;2.10;;;24.20;98.20;;;;;;5007180;28;20482;-71
2022/09/02 09:09:58;;;;;;;2.17;1.83;;;24.30;98.60;;;;;;5008206;28;20879;-71
2022/09/02 09:12:48;;;;;;;5.65;2.08;;;24.20;97.90;;;;;;5006020;28;20446;-73
2022/09/02 09:15:22;;;;;;;3.33;2.07;;;24.30;98.60;;;;;;5008183;28;20685;-73
2022/09/02 09:17:52;;;;;;;5.20;4.30;;;24.60;98.20;;;;;;5007762;28;20486;-73
2022/09/02 09:20:24;;;;;;;3.93;2.00;;;24.90;97.40;;;;;;5006881;28;20509;-73
2022/09/02 09:23:05;;;;;;;4.20;1.70;;;24.90;97.20;;;;;;5008011;28;20553;-72
2022/09/02 09:25:32;;;;;;;1.93;1.73;;;24.70;97.20;;;;;;5005782;28;21011;-74
2022/09/02 09:28:00;;;;;;;3.30;1.63;;;24.80;97.20;;;;;;5006711;28;20455;-74
2022/09/02 09:30:27;;;;;;;7.23;2.10;;;25.00;96.90;;;;;;5007058;28;20451;-74
2022/09/02 09:32:56;;;;;;;6.80;4.00;;;24.80;96.60;;;;;;5007057;28;20483;-74
2022/09/02 09:35:25;;;;;;;7.63;2.13;;;25.20;96.40;;;;;;5007356;28;20542;-74
2022/09/02 09:37:53;;;;;;;11.73;2.23;;;25.30;96.10;;;;;;5006895;28;20522;-74
2022/09/02 09:40:31;;;;;;;2.90;1.83;;;25.30;96.40;;;;;;5005514;28;20463;-74
2022/09/02 09:43:12;;;;;;;3.33;1.60;;;25.30;96.10;;;;;;5007223;28;20486;-74
2022/09/02 09:45:40;;;;;;;3.07;1.90;;;25.20;95.30;;;;;;5006561;28;20451;-74
2022/09/02 09:48:21;;;;;;;2.97;2.00;;;25.40;95.50;;;;;;5006197;28;20447;-74
2022/09/02 09:51:11;;;;;;;6.50;2.20;;;25.40;95.00;;;;;;5006489;28;20478;-74
2022/09/02 09:53:38;;;;;;;5.83;1.73;;;25.20;95.10;;;;;;5005482;28;20478;-73
2022/09/02 09:56:07;;;;;;;1.73;1.60;;;24.90;95.50;;;;;;5008155;28;20451;-74
2022/09/02 09:58:35;;;;;;;6.00;1.87;;;24.60;96.20;;;;;;5009550;28;20536;-74
2022/09/02 10:01:12;;;;;;;2.03;1.47;;;24.60;95.20;;;;;;5009170;28;20451;-73
2022/09/02 10:03:42;;;;;;;4.10;1.70;;;24.20;95.40;;;;;;5008229;28;20487;-74
2022/09/02 10:06:21;;;;;;;1.97;1.80;;;24.10;94.40;;;;;;5009118;28;21031;-73
2022/09/02 10:08:53;;;;;;;2.03;1.93;;;24.00;94.90;;;;;;5010261;28;20451;-74
2022/09/02 10:11:22;;;;;;;1.60;1.50;;;24.30;94.00;;;;;;5009659;28;20463;-74
2022/09/02 10:13:49;;;;;;;3.63;1.87;;;24.50;93.40;;;;;;5007487;28;22147;-73
2022/09/02 10:16:28;;;;;;;2.50;2.30;;;24.30;92.90;;;;;;5012044;28;20486;-73
2022/09/02 10:18:57;;;;;;;3.17;2.00;;;23.80;92.20;;;;;;5012016;28;20522;-74
2022/09/02 10:21:39;;;;;;;2.00;1.80;;;23.60;91.40;;;;;;5011191;28;20474;-74
2022/09/02 10:24:21;;;;;;;2.50;2.30;;;23.80;92.10;;;;;;5008915;28;20462;-74
2022/09/02 10:26:53;;;;;;;2.43;2.03;;;23.70;91.20;;;;;;5009578;28;20452;-74
2022/09/02 10:29:50;;;;;;;4.00;1.80;;;23.70;91.30;;;;;;5008493;28;20451;-74
2022/09/02 10:32:31;;;;;;;2.30;1.70;;;23.90;89.80;;;;;;5007483;28;20478;-74
2022/09/02 10:35:09;;;;;;;3.67;2.10;;;24.10;91.40;;;;;;5008376;28;20473;-74
2022/09/02 10:37:46;;;;;;;4.03;1.87;;;23.90;91.10;;;;;;5006910;28;20493;-73
2022/09/02 10:40:15;;;;;;;2.83;1.97;;;23.70;91.30;;;;;;5005575;28;20459;-74
2022/09/02 10:42:50;;;;;;;5.53;2.00;;;23.60;91.40;;;;;;5006288;28;20475;-74
2022/09/02 10:45:25;;;;;;;4.30;2.00;;;23.50;91.60;;;;;;5007477;28;20873;-74
2022/09/02 10:48:04;;;;;;;2.40;1.83;;;23.40;91.70;;;;;;5008458;28;20517;-73
2022/09/02 10:50:39;;;;;;;2.27;1.87;;;23.50;91.40;;;;;;5008302;28;20540;-74
2022/09/02 10:53:36;;;;;;;1.87;1.77;;;23.90;91.50;;;;;;5006808;28;20529;-73
2022/09/02 10:56:07;;;;;;;2.10;1.90;;;24.20;90.70;;;;;;5007715;28;20788;-75
2022/09/02 10:58:42;;;;;;;1.93;1.80;;;24.10;90.30;;;;;;5008169;28;20482;-74
2022/09/02 11:01:15;;;;;;;2.53;1.73;;;23.90;89.50;;;;;;5008255;28;20512;-74
2022/09/02 11:03:48;;;;;;;2.30;2.10;;;23.90;89.80;;;;;;5007778;28;20509;-74
2022/09/02 11:06:20;;;;;;;2.33;2.10;;;24.10;90.10;;;;;;5007323;28;20956;-74
2022/09/02 11:08:53;;;;;;;2.23;1.60;;;24.20;90.30;;;;;;5007919;28;20447;-74
2022/09/02 11:11:24;;;;;;;3.90;1.80;;;23.90;90.60;;;;;;5008009;28;20955;-74
2022/09/02 11:14:02;;;;;;;6.80;1.80;;;23.90;90.90;;;;;;5008209;28;21026;-74
2022/09/02 11:16:33;;;;;;;6.13;2.27;;;23.80;91.10;;;;;;5007874;28;20467;-75
2022/09/02 11:19:06;;;;;;;3.73;1.50;;;23.80;90.40;;;;;;5007801;28;20490;-74
2022/09/02 11:21:50;;;;;;;3.30;2.30;;;23.70;90.40;;;;;;5007908;28;20498;-74
2022/09/02 11:24:24;;;;;;;4.63;1.87;;;23.80;90.70;;;;;;5007998;28;20963;-73
2022/09/02 11:26:57;;;;;;;3.20;1.60;;;24.10;90.90;;;;;;5007787;28;20927;-74
2022/09/02 11:29:34;;;;;;;3.93;2.30;;;24.80;90.20;;;;;;5008057;28;20458;-75
2022/09/02 11:32:10;;;;;;;2.57;1.53;;;25.50;90.00;;;;;;5007021;28;20463;-74
2022/09/02 11:34:41;;;;;;;2.17;1.80;;;25.60;88.60;;;;;;5007181;28;20450;-73
2022/09/02 11:37:11;;;;;;;1.50;1.40;;;25.90;88.50;;;;;;5006726;28;20466;-73
2022/09/02 11:39:42;;;;;;;2.90;1.80;;;26.00;86.80;;;;;;5007785;28;20517;-74
2022/09/02 11:42:19;;;;;;;5.83;1.60;;;26.20;88.10;;;;;;5007991;28;20520;-74
2022/09/02 11:45:10;;;;;;;2.33;1.60;;;26.30;86.90;;;;;;5007782;28;20447;-73
2022/09/02 11:48:07;;;;;;;3.00;1.80;;;26.60;86.10;;;;;;5006856;28;20447;-74
2022/09/02 11:51:01;;;;;;;2.73;1.83;;;26.70;84.50;;;;;;4974052;28;20517;-74
2022/09/02 11:53:32;;;;;;;3.63;2.27;;;26.30;84.30;;;;;;5005956;28;20479;-74
2022/09/02 11:56:04;;;;;;;1.60;1.50;;;26.00;84.90;;;;;;5007222;28;20463;-74
2022/09/02 11:58:33;;;;;;;2.43;1.63;;;25.40;84.50;;;;;;5007652;28;20483;-74
2022/09/02 12:01:23;;;;;;;2.83;1.80;;;25.00;85.80;;;;;;5007446;28;20501;-74
2022/09/02 12:03:56;;;;;;;6.00;1.93;;;24.60;85.90;;;;;;5007173;28;20488;-74
2022/09/02 12:06:24;;;;;;;2.50;1.87;;;24.60;86.20;;;;;;5004108;28;20465;-74
2022/09/02 12:09:09;;;;;;;3.60;1.53;;;25.10;86.50;;;;;;5005335;28;20482;-74
2022/09/02 12:11:49;;;;;;;2.47;1.87;;;25.40;84.90;;;;;;5004672;28;20447;-74
2022/09/02 12:15:04;;;;;;;1.90;1.67;;;25.30;84.20;;;;;;5004281;28;20827;-74
2022/09/02 12:18:06;;;;;;;5.97;1.80;;;25.20;85.20;;;;;;5008501;28;20518;-74
2022/09/02 12:21:06;;;;;;;3.40;1.80;;;24.70;85.40;;;;;;5007637;28;20461;-73
2022/09/02 12:24:19;;;;;;;3.90;2.33;;;24.60;85.80;;;;;;5008369;28;20544;-74
2022/09/02 12:27:21;;;;;;;2.60;1.93;;;25.00;85.90;;;;;;4966825;28;20947;-73
2022/09/02 12:29:47;;;;;;;2.83;1.80;;;25.70;84.00;;;;;;4967420;28;21032;-73
2022/09/02 12:32:47;;;;;;;4.23;1.67;;;26.30;83.00;;;;;;4998692;28;20500;-74
2022/09/02 12:35:31;;;;;;;1.77;1.67;;;26.70;81.90;;;;;;5000201;28;20475;-73
2022/09/02 12:38:16;;;;;;;4.40;1.87;;;26.90;80.90;;;;;;5007392;28;20501;-73
2022/09/02 12:40:58;;;;;;;17.13;1.97;;;26.80;80.90;;;;;;5008499;28;20455;-72
2022/09/02 12:43:31;;;;;;;5.10;2.00;;;26.60;81.10;;;;;;5008291;28;20473;-74
2022/09/02 12:46:05;;;;;;;2.67;1.43;;;26.10;81.70;;;;;;5007852;28;20550;-73
2022/09/02 12:48:40;;;;;;;5.03;1.77;;;26.30;82.20;;;;;;5008154;28;21176;-73
2022/09/02 12:51:07;;;;;;;5.10;2.00;;;26.60;81.40;;;;;;5008214;28;20466;-73
2022/09/02 12:53:37;;;;;;;5.30;1.87;;;26.40;80.80;;;;;;5008008;28;20471;-72
2022/09/02 12:56:08;;;;;;;4.93;1.90;;;26.20;80.10;;;;;;5007045;28;20455;-72
2022/09/02 12:58:40;;;;;;;3.33;1.90;;;26.00;80.50;;;;;;5007371;28;20486;-73
2022/09/02 13:01:14;;;;;;;2.57;1.90;;;26.00;81.20;;;;;;5007965;28;20502;-72
2022/09/02 13:03:56;;;;;;;1.90;1.70;;;26.20;80.70;;;;;;5007205;28;20470;-73
2022/09/02 13:06:34;;;;;;;2.73;1.53;;;26.40;81.00;;;;;;5007242;28;20475;-73
2022/09/02 13:09:17;;;;;;;3.47;1.40;;;26.60;79.50;;;;;;5007134;28;20519;-74